Time;durP1;ratioP1;P1;durP2;ratioP2;P2;SDS_P1;SDS_P2;PMS_P1;PMS_P2;Temp;Humidity;BMP_temperature;BMP_pressure;BME280_temperature;BME280_humidity;BME280_pressure;Samples;Min_cycle;Max_cycle;Signal;HPM_P1;HPM_P2
2022/10/05 00:01:30;;;;;;;9.70;3.97;;;5.20;99.90;;;;;;5051713;28;20033;-52
2022/10/05 00:04:10;;;;;;;9.90;4.57;;;5.20;99.90;;;;;;5051546;28;20104;-53
2022/10/05 00:06:36;;;;;;;7.13;4.38;;;5.10;99.90;;;;;;5052034;28;20013;-51
2022/10/05 00:09:15;;;;;;;8.40;4.25;;;5.20;99.90;;;;;;5051363;28;20644;-51
2022/10/05 00:11:41;;;;;;;13.25;4.30;;;5.10;99.90;;;;;;5050690;28;20049;-50
2022/10/05 00:14:26;;;;;;;10.90;4.20;;;5.20;99.90;;;;;;5051387;28;20086;-51
2022/10/05 00:16:52;;;;;;;8.35;4.38;;;5.20;99.90;;;;;;5051497;28;20365;-53
2022/10/05 00:19:31;;;;;;;7.00;4.85;;;5.10;99.90;;;;;;5051766;28;20040;-51
2022/10/05 00:22:18;;;;;;;8.40;3.75;;;5.10;99.90;;;;;;5051691;28;20025;-51
2022/10/05 00:24:44;;;;;;;6.57;4.30;;;5.10;99.90;;;;;;5051948;28;20021;-51
2022/10/05 00:27:16;;;;;;;4.90;3.97;;;5.10;99.90;;;;;;5051689;28;20096;-50
2022/10/05 00:29:42;;;;;;;10.88;4.38;;;5.10;99.90;;;;;;5051960;28;20033;-52
2022/10/05 00:32:09;;;;;;;8.27;3.97;;;5.10;99.90;;;;;;5049864;28;20029;-52
2022/10/05 00:34:35;;;;;;;6.03;3.97;;;5.00;99.90;;;;;;5051861;28;20021;-50
2022/10/05 00:37:01;;;;;;;8.32;4.03;;;5.00;99.90;;;;;;5051127;28;20039;-51
2022/10/05 00:39:28;;;;;;;9.57;5.00;;;4.90;99.90;;;;;;5049446;28;20599;-50
2022/10/05 00:41:54;;;;;;;10.63;4.53;;;4.90;99.90;;;;;;5050615;28;20023;-50
2022/10/05 00:44:40;;;;;;;7.40;4.30;;;5.00;99.90;;;;;;5050928;28;20467;-54
2022/10/05 00:47:09;;;;;;;5.32;3.65;;;5.00;99.90;;;;;;5050151;28;20033;-52
2022/10/05 00:49:53;;;;;;;6.72;4.18;;;4.90;99.90;;;;;;5050502;28;20025;-53
2022/10/05 00:52:47;;;;;;;9.45;4.13;;;4.90;99.90;;;;;;5050985;28;20032;-51
2022/10/05 00:55:28;;;;;;;8.07;4.47;;;4.90;99.90;;;;;;5051266;28;20033;-53
2022/10/05 00:58:05;;;;;;;6.55;3.92;;;4.90;99.90;;;;;;5051533;28;20100;-52
2022/10/05 01:00:36;;;;;;;5.78;3.88;;;4.90;99.90;;;;;;5051659;28;20360;-51
2022/10/05 01:03:17;;;;;;;9.15;4.72;;;4.90;99.90;;;;;;5051247;28;20090;-53
2022/10/05 01:06:02;;;;;;;11.38;4.60;;;4.90;99.90;;;;;;5051433;28;20108;-52
2022/10/05 01:08:48;;;;;;;5.53;3.72;;;4.80;99.90;;;;;;5051120;28;20017;-52
2022/10/05 01:11:41;;;;;;;6.28;4.32;;;4.80;99.90;;;;;;5051132;28;20021;-51
2022/10/05 01:14:26;;;;;;;4.95;4.55;;;4.80;99.90;;;;;;5050959;28;20044;-51
2022/10/05 01:17:09;;;;;;;6.60;3.95;;;4.80;99.90;;;;;;5051098;28;20070;-51
2022/10/05 01:20:08;;;;;;;10.18;4.25;;;4.80;99.90;;;;;;5051244;28;20527;-53
2022/10/05 01:22:55;;;;;;;7.95;4.20;;;4.80;99.90;;;;;;5050952;28;20037;-52
2022/10/05 01:25:33;;;;;;;9.38;4.70;;;4.70;99.90;;;;;;5051048;28;20025;-52
2022/10/05 01:28:24;;;;;;;9.80;4.68;;;4.80;99.90;;;;;;5049883;28;20109;-52
2022/10/05 01:31:08;;;;;;;11.77;4.25;;;4.70;99.90;;;;;;5051188;28;20049;-51
2022/10/05 01:33:52;;;;;;;11.13;3.65;;;4.70;99.90;;;;;;5051270;28;20064;-52
2022/10/05 01:36:30;;;;;;;6.97;3.55;;;4.70;99.90;;;;;;5049744;28;20112;-54
2022/10/05 01:39:04;;;;;;;6.03;3.50;;;4.70;99.90;;;;;;5049511;28;20021;-52
2022/10/05 01:41:37;;;;;;;6.03;3.85;;;4.70;99.90;;;;;;5050915;28;20029;-52
2022/10/05 01:44:11;;;;;;;5.97;4.15;;;4.60;99.90;;;;;;5063881;28;20078;-52
2022/10/05 01:47:01;;;;;;;14.70;4.50;;;4.50;99.90;;;;;;5070729;28;20017;-51
2022/10/05 01:49:57;;;;;;;8.75;4.40;;;4.50;99.90;;;;;;5070815;28;20479;-52
2022/10/05 01:52:26;;;;;;;6.22;3.70;;;4.50;99.90;;;;;;5070924;28;20027;-52
2022/10/05 01:55:03;;;;;;;10.02;3.70;;;4.50;99.90;;;;;;5070775;28;20021;-54
2022/10/05 01:57:56;;;;;;;6.05;3.67;;;4.50;99.90;;;;;;5071019;28;20130;-50
2022/10/05 02:00:22;;;;;;;12.23;3.55;;;4.40;99.90;;;;;;5070937;28;20048;-50
2022/10/05 02:06:12;;;;;;;28.58;6.07;;;4.40;99.90;;;;;;5064545;28;20080;-51
2022/10/05 02:09:00;;;;;;;10.15;5.00;;;4.30;99.90;;;;;;5074428;28;20041;-52
2022/10/05 02:11:25;;;;;;;6.10;3.90;;;4.40;99.90;;;;;;5074579;28;20067;-50
2022/10/05 02:13:51;;;;;;;6.57;3.88;;;4.40;99.90;;;;;;5074097;28;20051;-51
2022/10/05 02:16:30;;;;;;;17.90;4.18;;;4.40;99.90;;;;;;5074268;28;20024;-50
2022/10/05 02:19:13;;;;;;;6.10;4.55;;;4.30;99.90;;;;;;5074153;28;20020;-51
2022/10/05 02:21:41;;;;;;;5.70;3.83;;;4.30;99.90;;;;;;5074454;28;20486;-52
2022/10/05 02:24:15;;;;;;;6.05;4.05;;;4.40;99.90;;;;;;5073713;28;20090;-50
2022/10/05 02:26:41;;;;;;;8.73;3.50;;;4.40;99.90;;;;;;5074426;28;20017;-51
2022/10/05 02:29:12;;;;;;;5.43;4.63;;;4.40;99.90;;;;;;5074040;28;20039;-51
2022/10/05 02:31:45;;;;;;;10.63;3.97;;;4.40;99.90;;;;;;5074347;28;20028;-53
2022/10/05 02:34:35;;;;;;;4.82;3.95;;;4.30;99.90;;;;;;5073991;28;20029;-51
2022/10/05 02:37:07;;;;;;;15.95;3.97;;;4.40;99.90;;;;;;5073985;28;20032;-51
2022/10/05 02:39:57;;;;;;;3.75;3.45;;;4.40;99.90;;;;;;5074029;28;20388;-50
2022/10/05 02:42:27;;;;;;;3.95;3.50;;;4.40;99.90;;;;;;5072568;28;20025;-52
2022/10/05 02:45:26;;;;;;;9.52;4.22;;;4.40;99.90;;;;;;5073763;28;20027;-50
2022/10/05 02:47:57;;;;;;;4.88;3.72;;;4.40;99.90;;;;;;5073709;28;20032;-52
2022/10/05 02:50:38;;;;;;;6.53;3.42;;;4.40;99.90;;;;;;5073811;28;20024;-51
2022/10/05 02:53:22;;;;;;;8.57;4.60;;;4.40;99.90;;;;;;5072176;28;20078;-52
2022/10/05 02:56:05;;;;;;;5.38;3.60;;;4.40;99.90;;;;;;5073811;28;20032;-51
2022/10/05 02:58:43;;;;;;;4.72;3.97;;;4.40;99.90;;;;;;5073804;28;20051;-52
2022/10/05 03:01:37;;;;;;;14.02;3.85;;;4.50;99.90;;;;;;5073619;28;20039;-51
2022/10/05 03:04:39;;;;;;;8.95;4.05;;;4.50;99.90;;;;;;5073302;28;20032;-51
2022/10/05 03:07:14;;;;;;;10.60;4.90;;;4.40;99.90;;;;;;5072590;28;20044;-52
2022/10/05 03:10:12;;;;;;;7.60;4.30;;;4.40;99.90;;;;;;5073201;28;20059;-50
2022/10/05 03:12:50;;;;;;;5.85;3.80;;;4.30;99.90;;;;;;5072174;28;20037;-51
2022/10/05 03:15:58;;;;;;;11.60;5.00;;;4.30;99.90;;;;;;5072869;28;20023;-51
2022/10/05 03:19:02;;;;;;;8.02;3.75;;;4.30;99.90;;;;;;5073204;28;20529;-55
2022/10/05 03:21:28;;;;;;;6.35;4.03;;;4.30;99.90;;;;;;5071611;28;20054;-51
2022/10/05 03:24:21;;;;;;;4.80;3.90;;;4.30;99.90;;;;;;5072828;28;20099;-53
2022/10/05 03:27:22;;;;;;;6.53;3.97;;;4.30;99.90;;;;;;5073284;28;20085;-53
2022/10/05 03:30:18;;;;;;;4.22;3.83;;;4.20;99.90;;;;;;5073094;28;20345;-50
2022/10/05 03:33:15;;;;;;;6.28;4.03;;;4.20;99.90;;;;;;5073239;28;20017;-51
2022/10/05 03:35:56;;;;;;;11.82;4.00;;;4.30;99.90;;;;;;5073109;28;20036;-51
2022/10/05 03:38:25;;;;;;;6.90;4.50;;;4.20;99.90;;;;;;5072534;28;20408;-51
2022/10/05 03:41:07;;;;;;;7.35;4.15;;;4.20;99.90;;;;;;5072394;28;20074;-51
2022/10/05 03:44:00;;;;;;;4.88;4.03;;;4.20;99.90;;;;;;5072315;28;20024;-50
2022/10/05 03:46:47;;;;;;;4.50;4.10;;;4.20;99.90;;;;;;5072448;28;20148;-52
2022/10/05 03:49:50;;;;;;;4.45;4.03;;;4.20;99.90;;;;;;5072430;28;20495;-54
2022/10/05 03:52:25;;;;;;;7.38;3.83;;;4.20;99.90;;;;;;5072441;28;20043;-51
2022/10/05 03:54:57;;;;;;;6.72;4.13;;;4.20;99.90;;;;;;5072438;28;20035;-51
2022/10/05 03:57:30;;;;;;;6.00;4.05;;;4.20;99.90;;;;;;5072488;28;20032;-50
2022/10/05 04:00:02;;;;;;;9.38;5.05;;;4.20;99.90;;;;;;5072505;28;20036;-54
2022/10/05 04:02:44;;;;;;;6.18;4.00;;;4.20;99.90;;;;;;5072177;28;20081;-51
2022/10/05 04:05:09;;;;;;;4.30;3.83;;;4.10;99.90;;;;;;5072015;28;20024;-52
2022/10/05 04:07:35;;;;;;;9.27;5.10;;;4.10;99.90;;;;;;5072244;28;20384;-50
2022/10/05 04:10:04;;;;;;;7.28;4.38;;;4.10;99.90;;;;;;5071805;28;20079;-50
2022/10/05 04:12:37;;;;;;;5.97;5.22;;;4.10;99.90;;;;;;5072004;28;20033;-50
2022/10/05 04:15:12;;;;;;;11.25;4.85;;;4.10;99.90;;;;;;5072036;28;20135;-54
2022/10/05 04:17:43;;;;;;;5.22;4.65;;;4.10;99.90;;;;;;5072196;28;20020;-50
2022/10/05 04:20:26;;;;;;;6.93;4.53;;;4.10;99.90;;;;;;5071586;28;20023;-52
2022/10/05 04:23:01;;;;;;;8.90;4.60;;;4.10;99.90;;;;;;5071592;28;20038;-52
2022/10/05 04:25:50;;;;;;;5.60;4.18;;;4.10;99.90;;;;;;5071477;28;20025;-51
2022/10/05 04:28:39;;;;;;;6.75;4.13;;;4.00;99.90;;;;;;5071434;28;20107;-51
2022/10/05 04:31:11;;;;;;;9.38;4.30;;;4.00;99.90;;;;;;5071908;28;20036;-52
2022/10/05 04:33:37;;;;;;;8.88;4.18;;;4.00;99.90;;;;;;5070862;28;20032;-51
2022/10/05 04:36:02;;;;;;;8.65;4.50;;;4.00;99.90;;;;;;5071470;28;20054;-53
2022/10/05 04:38:47;;;;;;;5.68;4.53;;;4.00;99.90;;;;;;5071142;28;20056;-52
2022/10/05 04:41:30;;;;;;;11.38;5.18;;;3.90;99.90;;;;;;5071394;28;20430;-52
2022/10/05 04:44:33;;;;;;;8.23;4.90;;;3.90;99.90;;;;;;5071961;28;20348;-51
2022/10/05 04:47:18;;;;;;;7.53;4.72;;;3.90;99.90;;;;;;5071846;28;20032;-52
2022/10/05 04:49:55;;;;;;;14.02;4.65;;;3.90;99.90;;;;;;5071731;28;20048;-52
2022/10/05 04:52:44;;;;;;;6.38;4.85;;;3.80;99.90;;;;;;5071895;28;20442;-51
2022/10/05 04:55:39;;;;;;;3.70;3.40;;;3.80;99.90;;;;;;5071669;28;20024;-51
2022/10/05 04:58:28;;;;;;;10.23;4.78;;;3.80;99.90;;;;;;5071363;28;20380;-51
2022/10/05 05:01:07;;;;;;;10.85;4.70;;;3.90;99.90;;;;;;5071483;28;20013;-52
2022/10/05 05:03:48;;;;;;;5.20;4.70;;;3.80;99.90;;;;;;5071240;28;20052;-51
2022/10/05 05:06:25;;;;;;;6.32;4.32;;;3.90;99.90;;;;;;5070272;28;20020;-51
2022/10/05 05:09:20;;;;;;;13.88;4.72;;;3.80;99.90;;;;;;5070793;28;20041;-52
2022/10/05 05:11:55;;;;;;;5.35;4.38;;;3.90;99.90;;;;;;5071128;28;20027;-53
2022/10/05 05:14:32;;;;;;;5.57;4.30;;;3.90;99.90;;;;;;5071191;28;20622;-52
2022/10/05 05:17:16;;;;;;;5.40;4.05;;;3.90;99.90;;;;;;5070816;28;20111;-55
2022/10/05 05:20:08;;;;;;;6.13;4.05;;;3.90;99.90;;;;;;5071154;28;20070;-51
2022/10/05 05:22:54;;;;;;;19.73;5.18;;;4.00;99.90;;;;;;5071096;28;20028;-52
2022/10/05 05:25:53;;;;;;;11.10;6.25;;;4.00;99.90;;;;;;5070813;28;20032;-51
2022/10/05 05:28:38;;;;;;;10.50;5.20;;;4.00;99.90;;;;;;5071064;28;20100;-51
2022/10/05 05:31:42;;;;;;;7.38;5.18;;;4.00;99.90;;;;;;5071053;28;20012;-52
2022/10/05 05:34:26;;;;;;;6.88;6.07;;;4.10;99.90;;;;;;5070586;28;20045;-51
2022/10/05 05:36:52;;;;;;;;;;;4.20;99.90;;;;;;5071520;28;20086;-52
2022/10/05 05:39:40;;;;;;;9.18;5.25;;;4.20;99.90;;;;;;5074387;28;19909;-50
2022/10/05 05:42:38;;;;;;;9.27;5.95;;;4.30;99.90;;;;;;5073462;28;20048;-51
2022/10/05 05:45:41;;;;;;;15.55;7.88;;;4.50;99.90;;;;;;5061429;28;20434;-50
2022/10/05 05:48:25;;;;;;;18.52;9.68;;;4.60;99.90;;;;;;5074361;28;20117;-51
2022/10/05 05:51:01;;;;;;;10.25;5.55;;;4.80;99.90;;;;;;5074171;28;20028;-51
2022/10/05 05:53:39;;;;;;;5.80;4.57;;;4.90;99.90;;;;;;5073700;28;20027;-51
2022/10/05 05:56:12;;;;;;;7.85;4.82;;;5.00;99.90;;;;;;5072659;28;20024;-51
2022/10/05 05:58:42;;;;;;;5.35;4.85;;;5.10;99.90;;;;;;5073522;28;20036;-53
2022/10/05 06:01:34;;;;;;;10.63;5.13;;;5.10;99.90;;;;;;5073059;28;20040;-51
2022/10/05 06:04:00;;;;;;;9.23;5.90;;;5.10;99.90;;;;;;5072735;28;20030;-53
2022/10/05 06:06:39;;;;;;;7.72;5.35;;;5.10;99.90;;;;;;5073190;28;20111;-52
2022/10/05 06:09:45;;;;;;;6.25;5.20;;;5.10;99.90;;;;;;5072911;28;20447;-55
2022/10/05 06:12:13;;;;;;;8.35;6.38;;;5.20;99.90;;;;;;5070415;28;20450;-53
2022/10/05 06:15:02;;;;;;;8.00;5.07;;;5.30;99.90;;;;;;5072863;28;20120;-56
2022/10/05 06:17:37;;;;;;;5.78;5.28;;;5.40;99.90;;;;;;5072332;28;20514;-55
2022/10/05 06:20:14;;;;;;;9.27;4.28;;;5.50;99.90;;;;;;5072989;28;20049;-56
2022/10/05 06:22:44;;;;;;;5.25;4.53;;;5.60;99.90;;;;;;5072408;28;20107;-53
2022/10/05 06:25:25;;;;;;;7.38;4.78;;;5.80;99.90;;;;;;5072768;28;20107;-52
2022/10/05 06:28:11;;;;;;;7.82;5.35;;;5.90;99.90;;;;;;5072316;28;20021;-52
2022/10/05 06:31:02;;;;;;;11.52;5.57;;;6.00;99.90;;;;;;5072855;28;20027;-51
2022/10/05 06:33:51;;;;;;;11.30;5.47;;;6.00;99.90;;;;;;5073021;28;20027;-52
2022/10/05 06:36:42;;;;;;;19.40;6.15;;;6.20;99.90;;;;;;5072877;28;20020;-53
2022/10/05 06:39:20;;;;;;;13.32;6.07;;;6.40;99.90;;;;;;5072458;28;20025;-53
2022/10/05 06:41:57;;;;;;;15.48;6.90;;;6.50;99.90;;;;;;5072817;28;20055;-53
2022/10/05 06:44:44;;;;;;;13.20;7.88;;;6.60;99.90;;;;;;5072349;28;20035;-52
2022/10/05 06:47:41;;;;;;;9.95;7.43;;;6.80;99.90;;;;;;5072632;28;20099;-50
2022/10/05 06:50:28;;;;;;;9.02;6.10;;;7.00;99.90;;;;;;5071777;28;20035;-52
2022/10/05 06:53:07;;;;;;;8.38;5.47;;;7.20;99.90;;;;;;5056096;28;20021;-51
2022/10/05 06:55:57;;;;;;;9.68;6.50;;;7.40;99.90;;;;;;5052636;28;20163;-53
2022/10/05 06:59:04;;;;;;;16.50;5.72;;;7.50;99.90;;;;;;5052656;28;20024;-51
2022/10/05 07:01:46;;;;;;;6.80;6.00;;;7.60;99.90;;;;;;5057750;28;20175;-52
2022/10/05 07:04:23;;;;;;;9.45;5.75;;;7.80;99.90;;;;;;5051439;28;20392;-55
2022/10/05 07:06:58;;;;;;;6.10;5.05;;;7.80;99.90;;;;;;5051470;28;20229;-51
2022/10/05 07:10:04;;;;;;;7.60;5.43;;;7.90;99.90;;;;;;5052132;28;20047;-52
2022/10/05 07:12:42;;;;;;;7.47;5.60;;;8.00;99.90;;;;;;5052257;28;20380;-51
2022/10/05 07:15:16;;;;;;;7.88;5.28;;;8.10;99.90;;;;;;5051284;28;20495;-52
2022/10/05 07:17:59;;;;;;;5.18;4.53;;;8.20;99.90;;;;;;5052262;28;20025;-53
2022/10/05 07:20:58;;;;;;;12.02;5.25;;;8.40;99.90;;;;;;5051482;28;20021;-52
2022/10/05 07:23:46;;;;;;;8.25;4.88;;;8.60;99.90;;;;;;5051468;28;20028;-51
2022/10/05 07:26:19;;;;;;;8.60;4.85;;;8.70;99.90;;;;;;5051279;28;20017;-52
2022/10/05 07:29:03;;;;;;;;;;;8.80;99.90;;;;;;5051865;28;20020;-51
2022/10/05 07:32:13;;;;;;;6.90;5.32;;;8.90;99.90;;;;;;5051877;28;19909;-53
2022/10/05 07:37:52;;;;;;;7.97;5.28;;;9.00;99.90;;;;;;5050382;28;20029;-52
2022/10/05 07:37:58;;;;;;;16.13;6.95;;;9.00;99.90;;;;;;5051129;28;20029;-51
2022/10/05 07:40:43;;;;;;;9.23;5.35;;;9.20;99.90;;;;;;5051505;28;20271;-50
2022/10/05 07:43:36;;;;;;;7.15;5.15;;;9.40;99.90;;;;;;5050883;28;20036;-52
2022/10/05 07:46:16;;;;;;;12.70;5.45;;;9.60;99.90;;;;;;5050971;28;20017;-51
2022/10/05 07:48:54;;;;;;;7.15;5.55;;;9.80;99.90;;;;;;5051230;28;20028;-51
2022/10/05 07:51:37;;;;;;;10.00;5.70;;;9.90;99.90;;;;;;5051406;28;20013;-52
2022/10/05 07:54:32;;;;;;;6.97;4.97;;;10.10;99.90;;;;;;5050973;28;20107;-52
2022/10/05 07:57:20;;;;;;;8.40;4.88;;;10.30;99.90;;;;;;5051051;28;20313;-50
2022/10/05 07:59:53;;;;;;;5.82;4.80;;;10.50;99.90;;;;;;5059488;28;20040;-54
2022/10/05 08:02:31;;;;;;;7.47;5.80;;;10.60;99.90;;;;;;5050062;28;20107;-53
2022/10/05 08:05:14;;;;;;;11.63;5.10;;;10.70;99.90;;;;;;5050857;28;20025;-52
2022/10/05 08:07:40;;;;;;;5.30;4.35;;;10.90;99.90;;;;;;5051014;28;20098;-52
2022/10/05 08:10:36;;;;;;;9.25;5.28;;;11.10;99.90;;;;;;5051704;28;20118;-51
2022/10/05 08:13:06;;;;;;;4.43;4.00;;;11.40;99.90;;;;;;5051915;28;20373;-51
2022/10/05 08:15:41;;;;;;;6.13;3.88;;;11.40;99.90;;;;;;5051130;28;20737;-53
2022/10/05 08:18:33;;;;;;;10.32;3.97;;;11.60;99.90;;;;;;5050505;28;20473;-52
2022/10/05 08:20:59;;;;;;;9.95;4.35;;;11.90;99.90;;;;;;5059337;28;20037;-52
2022/10/05 08:23:43;;;;;;;4.82;3.50;;;12.10;99.90;;;;;;5051939;28;20040;-52
2022/10/05 08:26:27;;;;;;;9.23;4.00;;;12.30;99.90;;;;;;5051513;28;20753;-52
2022/10/05 08:29:02;;;;;;;10.25;3.65;;;12.50;99.90;;;;;;5051520;28;20029;-53
2022/10/05 08:31:40;;;;;;;9.13;3.75;;;12.70;99.90;;;;;;5051881;28;20128;-54
2022/10/05 08:34:29;;;;;;;5.90;3.42;;;12.80;99.90;;;;;;5051502;28;20036;-55
2022/10/05 08:37:12;;;;;;;9.35;3.40;;;13.00;99.90;;;;;;5051359;28;20120;-51
2022/10/05 08:39:50;;;;;;;4.60;3.10;;;13.20;99.90;;;;;;5051762;28;20028;-51
2022/10/05 08:42:19;;;;;;;5.70;3.65;;;13.40;99.90;;;;;;5051657;28;20100;-53
2022/10/05 08:44:54;;;;;;;4.15;3.08;;;13.50;99.90;;;;;;5051385;28;20021;-53
2022/10/05 08:47:48;;;;;;;9.48;4.72;;;13.70;99.90;;;;;;5051316;28;20146;-51
2022/10/05 08:50:30;;;;;;;5.72;3.80;;;13.90;99.90;;;;;;5051502;28;20069;-54
2022/10/05 08:53:37;;;;;;;10.93;3.47;;;14.00;99.90;;;;;;5050901;28;20071;-52
2022/10/05 08:56:38;;;;;;;5.15;3.45;;;14.10;99.90;;;;;;5050507;28;20047;-54
2022/10/05 08:59:28;;;;;;;8.27;3.33;;;14.40;99.90;;;;;;5057696;28;20025;-54
2022/10/05 09:01:57;;;;;;;5.95;2.95;;;14.50;99.90;;;;;;5050628;28;20029;-55
2022/10/05 09:04:41;;;;;;;3.10;2.72;;;14.90;99.90;;;;;;5051331;28;20025;-55
2022/10/05 09:07:15;;;;;;;6.13;3.00;;;15.20;99.90;;;;;;5051463;28;20033;-55
2022/10/05 09:10:20;;;;;;;4.85;3.38;;;15.40;99.90;;;;;;5051151;28;20060;-51
2022/10/05 09:12:55;;;;;;;8.07;3.03;;;15.80;99.90;;;;;;5059193;28;20037;-55
2022/10/05 09:15:42;;;;;;;6.35;3.42;;;16.00;99.90;;;;;;5050945;28;20021;-50
2022/10/05 09:18:39;;;;;;;2.92;2.60;;;16.20;99.90;;;;;;5051068;28;20560;-52
2022/10/05 09:21:20;;;;;;;5.38;2.38;;;16.30;99.90;;;;;;5049702;28;20053;-53
2022/10/05 09:23:54;;;;;;;11.18;2.90;;;16.50;99.90;;;;;;5050999;28;20021;-53
2022/10/05 09:26:50;;;;;;;5.68;2.85;;;16.70;99.70;;;;;;5051030;28;20021;-54
2022/10/05 09:29:50;;;;;;;6.13;2.60;;;16.80;99.30;;;;;;5053446;28;20060;-53
2022/10/05 09:32:34;;;;;;;4.65;2.70;;;17.10;99.90;;;;;;5050720;28;20021;-52
2022/10/05 09:35:03;;;;;;;5.80;2.40;;;17.30;99.10;;;;;;5050960;28;20033;-54
2022/10/05 09:38:03;;;;;;;7.10;3.00;;;17.50;98.90;;;;;;5051091;28;20021;-51
2022/10/05 09:40:54;;;;;;;3.65;2.63;;;17.70;99.30;;;;;;5051156;28;20033;-54
2022/10/05 09:43:50;;;;;;;6.65;2.58;;;17.60;98.50;;;;;;5050121;28;20567;-52
2022/10/05 09:46:27;;;;;;;7.30;2.60;;;18.00;98.60;;;;;;5050642;28;20029;-54
2022/10/05 09:49:18;;;;;;;5.18;2.58;;;18.50;98.00;;;;;;5050566;28;20018;-52
2022/10/05 09:52:12;;;;;;;2.65;2.17;;;18.80;96.90;;;;;;5050929;28;20021;-54
2022/10/05 09:55:01;;;;;;;2.83;2.10;;;19.00;96.80;;;;;;5050730;28;20025;-55
2022/10/05 09:57:45;;;;;;;3.13;2.50;;;19.10;97.10;;;;;;5050174;28;20029;-55
2022/10/05 10:00:36;;;;;;;;;;;19.20;96.40;;;;;;5049762;28;20021;-54
2022/10/05 10:03:38;;;;;;;5.97;2.42;;;19.30;96.00;;;;;;5056479;28;19911;-54
2022/10/05 10:06:50;;;;;;;6.50;2.47;;;19.60;96.20;;;;;;5042251;28;20037;-54
2022/10/05 10:09:26;;;;;;;5.15;2.63;;;19.80;96.60;;;;;;5038558;28;20045;-52
2022/10/05 10:12:10;;;;;;;4.97;2.00;;;20.00;97.40;;;;;;5036180;28;20082;-53
2022/10/05 10:14:47;;;;;;;5.20;2.42;;;20.20;96.70;;;;;;5022956;28;20503;-57
2022/10/05 10:17:32;;;;;;;5.95;2.42;;;20.40;95.50;;;;;;5027568;28;20037;-52
2022/10/05 10:20:05;;;;;;;7.32;2.90;;;20.80;94.70;;;;;;5039313;28;20472;-51
2022/10/05 10:23:05;;;;;;;15.63;3.10;;;20.80;95.70;;;;;;5039610;28;20059;-56
2022/10/05 10:25:41;;;;;;;3.42;2.38;;;20.90;94.60;;;;;;5039405;28;20029;-54
2022/10/05 10:28:09;;;;;;;10.68;3.58;;;21.30;94.00;;;;;;5042768;28;20036;-54
2022/10/05 10:30:54;;;;;;;5.88;2.78;;;21.50;93.00;;;;;;5042130;28;20029;-55
2022/10/05 10:33:28;;;;;;;5.47;3.13;;;21.70;93.10;;;;;;5042339;28;20357;-56
2022/10/05 10:35:59;;;;;;;5.53;3.08;;;22.30;91.70;;;;;;5041563;28;20021;-55
2022/10/05 10:38:39;;;;;;;8.60;2.33;;;23.20;90.90;;;;;;5042884;28;20089;-51
2022/10/05 10:41:36;;;;;;;5.32;2.67;;;22.90;90.20;;;;;;5042298;28;20028;-54
2022/10/05 10:44:24;;;;;;;7.63;2.05;;;23.70;90.30;;;;;;5041924;28;20112;-52
2022/10/05 10:47:12;;;;;;;5.65;2.00;;;24.30;88.00;;;;;;5041913;28;20644;-53
2022/10/05 10:50:03;;;;;;;4.47;1.80;;;24.30;87.90;;;;;;5042166;28;20051;-53
2022/10/05 10:52:47;;;;;;;8.25;2.00;;;23.80;85.10;;;;;;5042105;28;20014;-54
2022/10/05 10:55:25;;;;;;;2.78;1.83;;;23.10;85.70;;;;;;5042198;28;20032;-55
2022/10/05 10:57:51;;;;;;;4.18;2.08;;;23.70;83.70;;;;;;5049489;28;20025;-53
2022/10/05 11:01:04;;;;;;;5.32;1.73;;;24.20;83.10;;;;;;5050604;28;20070;-54
2022/10/05 11:03:48;;;;;;;4.77;2.67;;;24.50;82.90;;;;;;5050254;28;20036;-55
2022/10/05 11:06:29;;;;;;;5.50;2.30;;;23.90;84.10;;;;;;5050201;28;20344;-54
2022/10/05 11:09:08;;;;;;;6.35;2.17;;;24.30;84.90;;;;;;5049254;28;20041;-54
2022/10/05 11:12:12;;;;;;;6.85;2.03;;;23.80;85.20;;;;;;5049652;28;20037;-51
2022/10/05 11:14:58;;;;;;;2.88;2.08;;;23.50;86.60;;;;;;5053770;28;20111;-54
2022/10/05 11:17:35;;;;;;;8.90;2.83;;;23.60;84.70;;;;;;5067027;28;20421;-53
2022/10/05 11:20:04;;;;;;;7.22;2.33;;;23.80;86.40;;;;;;5068244;28;20035;-62
2022/10/05 11:23:10;;;;;;;6.13;2.65;;;24.20;85.70;;;;;;5068789;28;20663;-56
2022/10/05 11:26:12;;;;;;;5.43;2.95;;;23.90;86.20;;;;;;5068210;28;20112;-55
2022/10/05 11:28:40;;;;;;;3.08;2.22;;;23.90;85.60;;;;;;5068762;28;20032;-56
2022/10/05 11:31:18;;;;;;;10.38;2.90;;;23.80;85.40;;;;;;5069203;28;20021;-54
2022/10/05 11:34:02;;;;;;;9.27;2.97;;;23.80;85.90;;;;;;5069522;28;20052;-55
2022/10/05 11:36:50;;;;;;;5.38;2.80;;;23.30;86.70;;;;;;5069017;28;20067;-56
2022/10/05 11:39:38;;;;;;;6.75;3.25;;;22.90;87.50;;;;;;5068710;28;20020;-55
2022/10/05 11:42:07;;;;;;;10.52;2.53;;;23.10;88.40;;;;;;5068796;28;20111;-52
2022/10/05 11:44:56;;;;;;;8.73;2.78;;;22.90;87.20;;;;;;5068961;28;20025;-54
2022/10/05 11:48:00;;;;;;;12.15;3.10;;;22.40;89.00;;;;;;5069038;28;20093;-54
2022/10/05 11:50:41;;;;;;;5.10;3.10;;;22.40;90.30;;;;;;5068771;28;20041;-51
2022/10/05 11:53:38;;;;;;;15.63;3.75;;;22.40;89.50;;;;;;5068816;28;20025;-55
2022/10/05 11:56:49;;;;;;;4.95;2.90;;;22.30;89.80;;;;;;5068611;28;20107;-51
2022/10/05 11:59:19;;;;;;;20.80;3.42;;;22.50;88.40;;;;;;5059455;28;20646;-53
2022/10/05 12:01:48;;;;;;;10.70;2.97;;;22.40;90.00;;;;;;5068839;28;20032;-55
2022/10/05 12:04:41;;;;;;;7.05;2.97;;;22.20;90.10;;;;;;5070327;28;20456;-52
2022/10/05 12:07:21;;;;;;;11.70;2.92;;;22.40;88.90;;;;;;5071700;28;20047;-53
2022/10/05 12:10:27;;;;;;;16.00;3.53;;;22.60;89.60;;;;;;5071556;28;20379;-54
2022/10/05 12:13:18;;;;;;;12.40;3.05;;;22.90;88.40;;;;;;5069819;28;20082;-56
2022/10/05 12:16:06;;;;;;;5.60;2.95;;;23.60;87.50;;;;;;5070384;28;20105;-54
2022/10/05 12:18:32;;;;;;;6.40;3.63;;;23.90;86.00;;;;;;5070010;28;20021;-54
2022/10/05 12:21:15;;;;;;;9.00;2.95;;;24.40;84.40;;;;;;5069265;28;20255;-54
2022/10/05 12:24:09;;;;;;;7.45;3.33;;;24.60;85.00;;;;;;5070345;28;20387;-56
2022/10/05 12:27:01;;;;;;;5.40;3.22;;;24.90;82.30;;;;;;5069053;28;20051;-54
2022/10/05 12:29:40;;;;;;;12.63;2.92;;;24.80;81.40;;;;;;5070100;28;20051;-56
2022/10/05 12:32:11;;;;;;;4.20;3.05;;;25.10;81.20;;;;;;5070128;28;20036;-54
2022/10/05 12:34:48;;;;;;;10.15;4.90;;;24.50;81.30;;;;;;5070578;28;20024;-52
2022/10/05 12:37:42;;;;;;;15.95;3.75;;;24.20;81.80;;;;;;5070479;28;20300;-54
2022/10/05 12:40:33;;;;;;;13.00;4.75;;;24.20;83.30;;;;;;5070300;28;20100;-51
2022/10/05 12:43:31;;;;;;;5.60;3.88;;;24.00;84.40;;;;;;5069949;28;20035;-55
2022/10/05 12:46:24;;;;;;;15.52;3.80;;;23.80;85.60;;;;;;5070409;28;20028;-56
2022/10/05 12:49:13;;;;;;;10.02;3.95;;;23.90;85.80;;;;;;5070991;28;20025;-55
2022/10/05 12:51:41;;;;;;;11.32;3.35;;;23.50;85.10;;;;;;5071039;28;20028;-55
2022/10/05 12:54:33;;;;;;;8.25;3.33;;;23.20;86.90;;;;;;5071114;28;20078;-50
2022/10/05 12:57:11;;;;;;;10.32;3.58;;;23.00;86.70;;;;;;5071045;28;20024;-55
2022/10/05 12:59:43;;;;;;;6.97;3.28;;;22.90;87.10;;;;;;5071245;28;20028;-54
2022/10/05 13:02:29;;;;;;;5.00;3.42;;;23.00;88.00;;;;;;5070603;28;20480;-54
2022/10/05 13:05:10;;;;;;;9.52;3.97;;;23.10;88.70;;;;;;5070071;28;20028;-53
2022/10/05 13:07:54;;;;;;;11.73;4.63;;;23.00;88.10;;;;;;5069878;28;20029;-55
2022/10/05 13:11:00;;;;;;;16.17;4.28;;;23.10;86.60;;;;;;5069490;28;20040;-56
2022/10/05 13:13:40;;;;;;;7.00;4.05;;;23.20;86.90;;;;;;5069574;28;20027;-55
2022/10/05 13:16:13;;;;;;;12.82;4.47;;;23.20;87.40;;;;;;5069484;28;20024;-55
2022/10/05 13:19:01;;;;;;;9.32;3.47;;;23.00;87.00;;;;;;5069824;28;20029;-55
2022/10/05 13:21:45;;;;;;;13.00;3.45;;;23.20;86.90;;;;;;5069770;28;20059;-51
2022/10/05 13:24:35;;;;;;;8.52;3.25;;;22.70;88.70;;;;;;5069501;28;20029;-55
2022/10/05 13:27:03;;;;;;;11.23;3.40;;;22.50;87.50;;;;;;5069346;28;20017;-53
2022/10/05 13:29:51;;;;;;;9.48;4.30;;;22.40;88.50;;;;;;5070087;28;20024;-51
2022/10/05 13:32:54;;;;;;;10.50;3.55;;;22.20;89.30;;;;;;5069823;28;20044;-53
2022/10/05 13:35:55;;;;;;;12.83;3.73;;;22.30;88.30;;;;;;5062332;28;20028;-52
2022/10/05 13:38:29;;;;;;;18.50;4.07;;;22.00;89.50;;;;;;5069876;28;20283;-52
2022/10/05 13:41:44;;;;;;;7.47;3.42;;;21.80;88.40;;;;;;5069705;28;20031;-52
2022/10/05 13:44:59;;;;;;;5.70;3.20;;;21.80;90.00;;;;;;5069525;28;20300;-55
2022/10/05 13:47:36;;;;;;;6.22;3.30;;;21.60;88.90;;;;;;5067126;28;20268;-54
2022/10/05 13:50:25;;;;;;;7.28;3.50;;;21.70;90.00;;;;;;5067659;28;20024;-51
2022/10/05 13:53:10;;;;;;;15.27;3.28;;;21.40;89.90;;;;;;5069720;28;20531;-55
2022/10/05 13:55:38;;;;;;;7.68;2.88;;;21.30;90.30;;;;;;5070416;28;20654;-54
2022/10/05 13:58:09;;;;;;;5.70;3.75;;;21.20;90.80;;;;;;5070330;28;20063;-51
2022/10/05 14:00:47;;;;;;;6.28;3.20;;;21.00;90.90;;;;;;5074551;28;20025;-53
2022/10/05 14:03:33;;;;;;;20.65;3.70;;;21.10;91.30;;;;;;5074361;28;20610;-52
2022/10/05 14:06:02;;;;;;;17.42;3.75;;;21.10;91.10;;;;;;5073688;28;20017;-53
2022/10/05 14:08:51;;;;;;;12.13;3.55;;;21.30;91.00;;;;;;5074196;28;20443;-51
2022/10/05 14:11:30;;;;;;;11.68;3.70;;;21.30;90.50;;;;;;5052574;28;20070;-50
2022/10/05 14:14:15;;;;;;;11.30;4.28;;;21.20;90.30;;;;;;5039663;28;20070;-53
2022/10/05 14:16:52;;;;;;;10.80;3.95;;;20.90;90.90;;;;;;5043273;28;20365;-55